createdAt,value
2019-05-09T00:00:33.537Z,99.90
2019-05-09T00:03:03.504Z,99.90
2019-05-09T00:05:33.564Z,99.90
2019-05-09T00:08:03.516Z,99.90
2019-05-09T00:10:39.426Z,99.90
2019-05-09T00:13:03.443Z,99.90
2019-05-09T00:15:33.218Z,99.90
2019-05-09T00:18:03.921Z,99.90
2019-05-09T00:20:44.185Z,99.90
2019-05-09T00:23:13.526Z,99.90
2019-05-09T00:25:43.307Z,99.90
2019-05-09T00:28:13.458Z,99.90
2019-05-09T00:30:59.110Z,99.90
2019-05-09T00:33:29.307Z,99.90
2019-05-09T00:35:57.810Z,99.90
2019-05-09T00:38:33.356Z,99.90
2019-05-09T00:41:03.827Z,99.90
2019-05-09T00:43:34.177Z,99.90
2019-05-09T00:46:18.465Z,99.90
2019-05-09T00:48:54.421Z,99.90
2019-05-09T00:51:23.400Z,99.90
2019-05-09T00:53:53.643Z,99.90
2019-05-09T00:56:23.918Z,99.90
2019-05-09T00:58:53.582Z,99.90
2019-05-09T01:01:23.950Z,99.90
2019-05-09T01:03:53.592Z,99.90
2019-05-09T01:06:23.910Z,99.90
2019-05-09T01:08:53.605Z,99.90
2019-05-09T01:11:24.228Z,99.90
2019-05-09T01:13:54.312Z,99.90
2019-05-09T01:16:24.222Z,99.90
2019-05-09T01:18:54.357Z,99.90
2019-05-09T01:21:24.003Z,99.90
2019-05-09T01:23:53.900Z,99.90
2019-05-09T01:26:24.003Z,99.90
2019-05-09T01:28:53.970Z,99.90
2019-05-09T01:31:24.028Z,99.90
2019-05-09T01:34:15.040Z,99.90
2019-05-09T01:37:03.461Z,99.90
2019-05-09T01:39:33.620Z,99.90
2019-05-09T01:42:03.275Z,99.90
2019-05-09T01:44:33.490Z,99.90
2019-05-09T01:47:03.778Z,99.90
2019-05-09T01:49:34.218Z,99.90
2019-05-09T01:52:03.514Z,99.90
2019-05-09T01:54:33.426Z,99.90
2019-05-09T01:57:03.376Z,99.90
2019-05-09T01:59:33.989Z,99.90
2019-05-09T02:02:08.307Z,99.90
2019-05-09T02:04:33.563Z,99.90
2019-05-09T02:07:04.186Z,99.90
2019-05-09T02:09:34.237Z,99.90
2019-05-09T02:12:03.834Z,99.90
2019-05-09T02:14:46.670Z,99.90
2019-05-09T02:17:33.505Z,99.90
2019-05-09T02:20:04.001Z,99.90
2019-05-09T02:22:35.674Z,99.90
2019-05-09T02:25:06.046Z,99.90
2019-05-09T02:27:34.961Z,99.90
2019-05-09T02:30:05.813Z,99.90
2019-05-09T02:32:34.884Z,99.90
2019-05-09T02:35:04.959Z,99.90
2019-05-09T02:37:33.915Z,99.90
2019-05-09T02:40:02.509Z,99.90
2019-05-09T02:42:31.018Z,99.90
2019-05-09T02:44:59.641Z,99.90
2019-05-09T02:47:28.993Z,99.90
2019-05-09T02:49:58.936Z,99.90
2019-05-09T02:56:09.385Z,99.90
2019-05-09T02:58:55.190Z,99.90
2019-05-09T03:01:49.496Z,99.90
2019-05-09T03:04:18.870Z,99.90
2019-05-09T03:06:49.199Z,99.90
2019-05-09T03:09:19.288Z,99.90
2019-05-09T03:11:48.692Z,99.90
2019-05-09T03:14:19.543Z,99.90
2019-05-09T03:16:49.124Z,99.90
2019-05-09T03:19:19.483Z,99.90
2019-05-09T03:22:10.731Z,99.90
2019-05-09T03:24:39.568Z,99.90
2019-05-09T03:27:14.090Z,99.90
2019-05-09T03:29:55.161Z,99.90
2019-05-09T03:32:23.610Z,99.90
2019-05-09T03:34:52.053Z,99.90
2019-05-09T03:37:20.617Z,99.90
2019-05-09T03:39:49.085Z,99.90
2019-05-09T03:42:21.225Z,99.90
2019-05-09T03:44:47.864Z,99.90
2019-05-09T03:47:34.725Z,99.90
2019-05-09T03:50:28.612Z,99.90
2019-05-09T03:52:57.975Z,99.90
2019-05-09T03:55:33.420Z,99.90
2019-05-09T03:58:09.240Z,99.90
2019-05-09T04:00:37.677Z,99.90
2019-05-09T04:03:08.092Z,99.90
2019-05-09T04:05:37.644Z,99.90
2019-05-09T04:08:19.399Z,99.90
2019-05-09T04:10:50.297Z,99.90
2019-05-09T04:13:20.707Z,99.90
2019-05-09T04:15:49.154Z,99.90
2019-05-09T04:18:17.789Z,99.90
2019-05-09T04:20:48.246Z,99.90
2019-05-09T04:23:18.547Z,99.90
2019-05-09T04:26:07.584Z,99.90
2019-05-09T04:28:39.658Z,99.90
2019-05-09T04:31:07.459Z,99.90
2019-05-09T04:33:38.173Z,99.90
2019-05-09T04:36:08.205Z,99.90
2019-05-09T04:38:39.730Z,99.90
2019-05-09T04:41:07.525Z,99.90
2019-05-09T04:43:39.687Z,99.90
2019-05-09T04:46:13.001Z,99.90
2019-05-09T04:48:38.768Z,99.90
2019-05-09T04:51:08.061Z,99.90
2019-05-09T04:53:37.706Z,99.90
2019-05-09T04:56:21.749Z,99.90
2019-05-09T04:58:50.301Z,99.90
2019-05-09T05:01:38.936Z,99.90
2019-05-09T05:04:07.771Z,99.90
2019-05-09T05:06:40.327Z,99.90
2019-05-09T05:09:07.868Z,99.90
2019-05-09T05:11:38.135Z,99.90
2019-05-09T05:14:09.109Z,99.90
2019-05-09T05:16:39.193Z,99.90
2019-05-09T05:19:07.646Z,99.90
2019-05-09T05:21:37.844Z,99.90
2019-05-09T05:24:18.597Z,99.90
2019-05-09T05:26:48.444Z,99.90
2019-05-09T05:29:17.835Z,99.90
2019-05-09T05:31:47.754Z,99.90
2019-05-09T05:34:22.853Z,99.90
2019-05-09T05:36:51.285Z,99.90
2019-05-09T05:39:19.773Z,99.90
2019-05-09T05:41:48.525Z,99.90
2019-05-09T05:44:17.818Z,99.90
2019-05-09T05:47:07.695Z,99.90
2019-05-09T05:49:38.332Z,99.90
2019-05-09T05:52:08.095Z,99.90
2019-05-09T05:54:37.858Z,99.90
2019-05-09T05:57:08.384Z,99.90
2019-05-09T05:59:40.809Z,99.90
2019-05-09T06:02:08.769Z,99.90
2019-05-09T06:04:38.314Z,99.90
2019-05-09T06:07:08.017Z,99.90
2019-05-09T06:09:37.871Z,99.90
2019-05-09T06:12:08.286Z,99.90
2019-05-09T06:14:37.804Z,99.90
2019-05-09T06:17:08.032Z,99.90
2019-05-09T06:19:37.877Z,99.90
2019-05-09T06:22:08.181Z,99.90
2019-05-09T06:24:38.777Z,99.90
2019-05-09T06:27:10.121Z,99.90
2019-05-09T06:29:38.958Z,99.90
2019-05-09T06:32:08.004Z,99.90
2019-05-09T06:34:41.681Z,99.90
2019-05-09T06:37:08.921Z,99.90
2019-05-09T06:39:38.183Z,99.90
2019-05-09T06:42:09.021Z,99.90
2019-05-09T06:44:58.422Z,99.90
2019-05-09T06:47:30.753Z,99.90
2019-05-09T06:50:00.857Z,99.90
2019-05-09T06:52:29.305Z,99.90
2019-05-09T06:54:58.356Z,99.90
2019-05-09T06:57:28.069Z,99.90
2019-05-09T06:59:58.077Z,99.90
2019-05-09T07:02:38.932Z,99.90
2019-05-09T07:05:39.208Z,99.90
2019-05-09T07:08:38.996Z,99.90
2019-05-09T07:11:07.688Z,99.90
2019-05-09T07:13:38.084Z,99.90
2019-05-09T07:16:08.842Z,99.90
2019-05-09T07:18:38.272Z,99.90
2019-05-09T07:21:08.210Z,99.90
2019-05-09T07:23:37.424Z,99.90
2019-05-09T07:26:14.349Z,99.90
2019-05-09T07:28:43.093Z,99.90
2019-05-09T07:31:37.720Z,99.90
2019-05-09T07:34:23.219Z,99.90
2019-05-09T07:37:08.333Z,99.90
2019-05-09T07:39:37.946Z,99.90
2019-05-09T07:42:07.676Z,99.90
2019-05-09T07:44:46.237Z,99.90
2019-05-09T07:47:07.689Z,99.90
2019-05-09T07:49:37.718Z,99.90
2019-05-09T07:52:10.127Z,99.90
2019-05-09T07:54:38.075Z,99.90
2019-05-09T07:57:08.591Z,99.90
2019-05-09T07:59:38.929Z,99.90
2019-05-09T08:02:08.735Z,99.90
2019-05-09T08:04:38.602Z,99.90
2019-05-09T08:07:08.358Z,99.90
2019-05-09T08:09:38.703Z,99.90
2019-05-09T08:12:07.542Z,99.90
2019-05-09T08:14:37.760Z,99.90
2019-05-09T08:17:08.386Z,99.90
2019-05-09T08:19:38.021Z,99.90
2019-05-09T08:22:08.033Z,99.90
2019-05-09T08:24:38.061Z,99.90
2019-05-09T08:27:08.581Z,99.90
2019-05-09T08:29:38.729Z,99.90
2019-05-09T08:32:07.567Z,99.90
2019-05-09T08:34:37.821Z,99.90
2019-05-09T08:37:08.203Z,99.90
2019-05-09T08:39:38.237Z,99.90
2019-05-09T08:42:08.603Z,99.90
2019-05-09T08:44:38.276Z,99.90
2019-05-09T08:47:07.939Z,99.90
2019-05-09T08:49:52.906Z,99.90
2019-05-09T08:52:21.349Z,99.90
2019-05-09T08:54:53.022Z,99.90
2019-05-09T08:57:21.474Z,99.90
2019-05-09T08:59:50.955Z,99.90
2019-05-09T09:02:22.350Z,99.90
2019-05-09T09:04:50.498Z,99.90
2019-05-09T09:07:19.211Z,99.90
2019-05-09T09:09:48.376Z,99.90
2019-05-09T09:12:27.330Z,99.90
2019-05-09T09:14:47.983Z,99.90
2019-05-09T09:17:18.806Z,99.90
2019-05-09T09:19:47.858Z,99.90
2019-05-09T09:22:17.976Z,99.90
2019-05-09T09:24:48.166Z,99.90
2019-05-09T09:27:18.219Z,99.90
2019-05-09T09:29:48.118Z,99.90
2019-05-09T09:32:19.015Z,99.90
2019-05-09T09:34:48.501Z,99.90
2019-05-09T09:37:18.481Z,99.90
2019-05-09T09:39:48.822Z,99.90
2019-05-09T09:42:19.847Z,99.90
2019-05-09T09:44:48.152Z,99.90
2019-05-09T09:47:22.308Z,99.90
2019-05-09T09:49:49.109Z,99.90
2019-05-09T09:52:18.742Z,99.90
2019-05-09T09:54:48.183Z,99.90
2019-05-09T09:57:18.991Z,99.90
2019-05-09T09:59:53.688Z,99.90
2019-05-09T10:02:27.986Z,99.90
2019-05-09T10:04:56.521Z,99.90
2019-05-09T10:07:24.963Z,99.90
2019-05-09T10:09:53.477Z,99.90
2019-05-09T10:12:22.569Z,99.90
2019-05-09T10:14:57.938Z,99.90
2019-05-09T10:17:49.012Z,99.90
2019-05-09T10:20:25.081Z,99.90
2019-05-09T10:23:00.233Z,99.90
2019-05-09T10:25:23.941Z,99.90
2019-05-09T10:27:58.094Z,99.00
2019-05-09T10:30:34.030Z,99.40
2019-05-09T10:33:02.559Z,99.40
2019-05-09T10:35:30.994Z,99.90
2019-05-09T10:37:59.494Z,99.90
2019-05-09T10:40:28.178Z,99.90
2019-05-09T10:43:04.912Z,99.90
2019-05-09T10:45:52.693Z,99.90
2019-05-09T10:48:23.968Z,99.20
2019-05-09T10:50:53.917Z,99.40
2019-05-09T10:53:21.824Z,99.20
2019-05-09T10:55:50.290Z,99.40
2019-05-09T10:58:20.175Z,99.00
2019-05-09T11:00:49.025Z,98.50
2019-05-09T11:03:18.021Z,98.70
2019-05-09T11:05:46.670Z,99.10
2019-05-09T11:08:18.320Z,99.10
2019-05-09T11:10:47.480Z,98.30
2019-05-09T11:13:18.136Z,98.50
2019-05-09T11:15:47.970Z,98.70
2019-05-09T11:18:18.510Z,98.80
2019-05-09T11:20:46.967Z,99.90
2019-05-09T11:23:15.481Z,98.60
2019-05-09T11:25:43.942Z,99.60
2019-05-09T11:28:15.185Z,99.20
2019-05-09T11:30:43.189Z,97.40
2019-05-09T11:33:11.710Z,97.30
2019-05-09T11:35:40.142Z,97.60
2019-05-09T11:38:08.650Z,97.20
2019-05-09T11:40:37.804Z,97.60
2019-05-09T11:43:06.841Z,97.00
2019-05-09T11:45:35.950Z,97.70
2019-05-09T11:48:04.525Z,96.80
2019-05-09T11:50:33.407Z,96.20
2019-05-09T11:53:02.106Z,96.70
2019-05-09T11:55:36.053Z,96.30
2019-05-09T11:58:02.278Z,95.20
2019-05-09T12:00:30.939Z,95.70
2019-05-09T12:02:59.551Z,96.00
2019-05-09T12:05:28.798Z,95.80
2019-05-09T12:07:58.118Z,95.20
2019-05-09T12:10:28.559Z,97.30
2019-05-09T12:12:57.723Z,97.80
2019-05-09T12:15:29.034Z,97.20
2019-05-09T12:18:02.305Z,96.50
2019-05-09T12:20:28.850Z,96.70
2019-05-09T12:22:58.408Z,96.40
2019-05-09T12:25:28.340Z,96.80
2019-05-09T12:27:58.408Z,97.30
2019-05-09T12:30:28.472Z,96.70
2019-05-09T12:32:58.981Z,96.10
2019-05-09T12:35:27.452Z,96.30
2019-05-09T12:37:55.913Z,95.40
2019-05-09T12:40:24.424Z,95.40
2019-05-09T12:42:52.920Z,95.50
2019-05-09T12:45:21.532Z,95.10
2019-05-09T12:48:05.181Z,94.50
2019-05-09T12:50:20.289Z,95.20
2019-05-09T12:52:48.890Z,94.30
2019-05-09T12:55:17.872Z,94.50
2019-05-09T12:57:48.688Z,94.50
2019-05-09T13:00:18.692Z,94.40
2019-05-09T13:02:47.219Z,94.30
2019-05-09T13:05:17.922Z,94.10
2019-05-09T13:07:48.093Z,94.60
2019-05-09T13:10:19.457Z,95.40
2019-05-09T13:12:48.393Z,95.90
2019-05-09T13:15:20.775Z,95.20
2019-05-09T13:17:50.087Z,95.20
2019-05-09T13:20:19.091Z,96.40
2019-05-09T13:22:47.829Z,95.00
2019-05-09T13:25:18.674Z,94.50
2019-05-09T13:27:47.845Z,95.10
2019-05-09T13:30:18.963Z,94.90
2019-05-09T13:32:48.355Z,94.30
2019-05-09T13:35:19.970Z,93.70
2019-05-09T13:37:49.131Z,93.70
2019-05-09T13:40:19.071Z,94.00
2019-05-09T13:42:49.000Z,94.50
2019-05-09T13:45:18.642Z,94.40
2019-05-09T13:47:48.413Z,95.80
2019-05-09T13:50:18.609Z,95.40
2019-05-09T13:52:47.999Z,96.00
2019-05-09T13:55:17.832Z,95.60
2019-05-09T13:57:48.624Z,95.50
2019-05-09T14:00:18.459Z,95.90
2019-05-09T14:02:48.884Z,95.70
2019-05-09T14:05:19.117Z,96.40
2019-05-09T14:07:49.223Z,96.00
2019-05-09T14:10:18.790Z,95.60
2019-05-09T14:13:04.881Z,96.10
2019-05-09T14:15:18.597Z,96.60
2019-05-09T14:17:53.106Z,96.30
2019-05-09T14:20:19.195Z,97.30
2019-05-09T14:22:48.996Z,96.90
2019-05-09T14:25:19.600Z,97.80
2019-05-09T14:27:49.706Z,97.90
2019-05-09T14:30:19.786Z,98.40
2019-05-09T14:32:49.784Z,99.10
2019-05-09T14:35:18.650Z,98.00
2019-05-09T14:37:48.793Z,98.40
2019-05-09T14:40:18.004Z,98.00
2019-05-09T14:42:46.502Z,99.80
2019-05-09T14:45:14.934Z,99.80
2019-05-09T14:47:43.476Z,98.20
2019-05-09T14:50:11.925Z,96.50
2019-05-09T14:52:40.428Z,98.10
2019-05-09T14:55:08.986Z,96.40
2019-05-09T14:57:38.394Z,96.70
2019-05-09T15:00:08.277Z,96.20
2019-05-09T15:02:38.909Z,96.00
2019-05-09T15:05:09.462Z,95.70
2019-05-09T15:07:39.131Z,94.80
2019-05-09T15:10:08.678Z,94.30
2019-05-09T15:12:39.013Z,94.30
2019-05-09T15:15:09.717Z,94.00
2019-05-09T15:17:38.233Z,94.50
2019-05-09T15:20:08.786Z,93.70
2019-05-09T15:22:38.643Z,93.90
2019-05-09T15:25:08.767Z,93.30
2019-05-09T15:27:38.439Z,92.80
2019-05-09T15:30:07.669Z,92.00
2019-05-09T15:32:37.759Z,93.00
2019-05-09T15:35:08.835Z,92.20
2019-05-09T15:37:38.514Z,92.30
2019-05-09T15:40:08.650Z,93.60
2019-05-09T15:42:38.959Z,92.90
2019-05-09T15:45:08.571Z,92.70
2019-05-09T15:47:38.048Z,92.60
2019-05-09T15:50:16.581Z,92.60
2019-05-09T15:52:38.387Z,92.80
2019-05-09T15:55:09.446Z,93.50
2019-05-09T15:57:37.937Z,93.50
2019-05-09T16:00:08.340Z,93.80
2019-05-09T16:02:39.060Z,94.20
2019-05-09T16:05:10.547Z,94.40
2019-05-09T16:07:39.303Z,94.50
2019-05-09T16:10:08.602Z,94.80
2019-05-09T16:12:38.357Z,94.60
2019-05-09T16:15:07.813Z,94.50
2019-05-09T16:17:39.367Z,94.60
2019-05-09T16:20:08.459Z,94.90
2019-05-09T16:22:39.261Z,95.30
2019-05-09T16:25:07.734Z,94.60
2019-05-09T16:27:37.985Z,94.60
2019-05-09T16:30:08.411Z,94.20
2019-05-09T16:32:37.838Z,94.80
2019-05-09T16:35:07.970Z,94.50
2019-05-09T16:37:57.327Z,94.70
2019-05-09T16:40:08.469Z,94.80
2019-05-09T16:42:38.190Z,95.20
2019-05-09T16:45:08.152Z,95.20
2019-05-09T16:47:36.771Z,95.70
2019-05-09T16:50:07.878Z,95.70
2019-05-09T16:52:43.086Z,95.70
2019-05-09T16:55:11.600Z,96.10
2019-05-09T16:57:40.112Z,96.30
2019-05-09T17:00:10.786Z,96.60
2019-05-09T17:02:39.277Z,97.20
2019-05-09T17:05:08.380Z,97.00
2019-05-09T17:07:38.398Z,96.70
2019-05-09T17:10:08.337Z,97.40
2019-05-09T17:12:37.409Z,97.40
2019-05-09T17:15:08.496Z,97.90
2019-05-09T17:17:38.472Z,98.40
2019-05-09T17:20:09.458Z,97.70
2019-05-09T17:23:09.998Z,97.80
2019-05-09T17:25:28.217Z,98.10
2019-05-09T17:27:59.295Z,97.60
2019-05-09T17:30:28.615Z,97.30
2019-05-09T17:32:58.487Z,96.90
2019-05-09T17:35:27.924Z,96.80
2019-05-09T17:37:56.850Z,97.00
2019-05-09T17:40:27.653Z,97.30
2019-05-09T17:42:55.594Z,97.30
2019-05-09T17:45:24.539Z,97.30
2019-05-09T17:47:52.996Z,97.90
2019-05-09T17:50:21.971Z,98.00
2019-05-09T17:52:50.402Z,98.00
2019-05-09T17:55:18.918Z,98.10
2019-05-09T17:57:47.972Z,97.60
2019-05-09T18:00:21.763Z,98.00
2019-05-09T18:02:48.656Z,98.30
2019-05-09T18:05:17.421Z,98.10
2019-05-09T18:07:47.914Z,98.40
2019-05-09T18:10:18.449Z,98.80
2019-05-09T18:12:47.966Z,99.10
2019-05-09T18:15:18.645Z,99.70
2019-05-09T18:17:48.096Z,99.90
2019-05-09T18:20:17.709Z,99.90
2019-05-09T18:22:47.902Z,99.90
2019-05-09T18:25:18.774Z,99.90
2019-05-09T18:27:48.793Z,99.90
2019-05-09T18:30:19.062Z,99.90
2019-05-09T18:33:07.525Z,99.90
2019-05-09T18:35:38.030Z,99.90
2019-05-09T18:38:07.925Z,99.90
2019-05-09T18:40:36.989Z,99.90
2019-05-09T18:43:07.720Z,99.90
2019-05-09T18:45:37.612Z,99.90
2019-05-09T18:48:08.279Z,99.90
2019-05-09T18:50:36.833Z,99.90
2019-05-09T18:53:05.824Z,99.90
2019-05-09T18:55:36.977Z,99.90
2019-05-09T18:58:07.490Z,99.90
2019-05-09T19:00:37.847Z,99.90
2019-05-09T19:03:08.427Z,99.90
2019-05-09T19:05:38.326Z,99.90
2019-05-09T19:08:08.055Z,99.90
2019-05-09T19:10:37.919Z,99.90
2019-05-09T19:13:07.761Z,99.90
2019-05-09T19:15:59.546Z,99.90
2019-05-09T19:18:51.976Z,99.90
2019-05-09T19:21:31.093Z,99.90
2019-05-09T19:24:00.797Z,99.90
2019-05-09T19:26:36.631Z,99.90
2019-05-09T19:29:08.426Z,99.90
2019-05-09T19:31:38.912Z,99.90
2019-05-09T19:34:09.701Z,99.90
2019-05-09T19:36:39.490Z,99.90
2019-05-09T19:39:10.281Z,99.90
2019-05-09T19:41:40.405Z,99.90
2019-05-09T19:44:10.061Z,99.90
2019-05-09T19:46:40.022Z,99.90
2019-05-09T19:49:11.016Z,99.90
2019-05-09T19:51:41.200Z,99.90
2019-05-09T19:54:11.160Z,99.90
2019-05-09T19:56:42.472Z,99.90
2019-05-09T19:59:12.667Z,99.90
2019-05-09T20:01:43.329Z,99.90
2019-05-09T20:04:13.386Z,99.90
2019-05-09T20:06:46.508Z,99.90
2019-05-09T20:09:31.193Z,99.90
2019-05-09T20:12:27.381Z,99.90
2019-05-09T20:14:57.638Z,99.90
2019-05-09T20:17:27.798Z,99.90
2019-05-09T20:19:57.656Z,99.90
2019-05-09T20:22:27.318Z,99.90
2019-05-09T20:24:57.834Z,99.90
2019-05-09T20:27:27.506Z,99.90
2019-05-09T20:29:57.511Z,99.90
2019-05-09T20:32:28.648Z,99.90
2019-05-09T20:34:58.403Z,99.90
2019-05-09T20:37:29.167Z,99.90
2019-05-09T20:39:59.043Z,99.90
2019-05-09T20:42:28.626Z,99.90
2019-05-09T20:44:59.095Z,99.90
2019-05-09T20:47:28.171Z,99.90
2019-05-09T20:49:57.387Z,99.90
2019-05-09T20:52:26.365Z,99.90
2019-05-09T20:54:55.386Z,99.90
2019-05-09T20:57:23.921Z,99.90
2019-05-09T20:59:52.426Z,99.90
2019-05-09T21:02:20.885Z,99.90
2019-05-09T21:04:49.383Z,99.90
2019-05-09T21:07:17.818Z,99.90
2019-05-09T21:09:46.325Z,99.90
2019-05-09T21:12:14.761Z,99.90
2019-05-09T21:14:43.434Z,99.90
2019-05-09T21:17:11.870Z,99.90
2019-05-09T21:19:40.377Z,99.90
2019-05-09T21:22:08.830Z,99.90
2019-05-09T21:24:37.331Z,99.90
2019-05-09T21:27:06.286Z,99.90
2019-05-09T21:29:35.166Z,99.90
2019-05-09T21:32:04.104Z,99.90
2019-05-09T21:34:32.628Z,99.90
2019-05-09T21:37:01.663Z,99.90
2019-05-09T21:39:30.163Z,99.90
2019-05-09T21:41:58.594Z,99.90
2019-05-09T21:44:27.098Z,99.90
2019-05-09T21:46:55.530Z,99.90
2019-05-09T21:49:24.045Z,99.90
2019-05-09T21:51:52.547Z,99.90
2019-05-09T21:54:21.009Z,99.90
2019-05-09T21:56:49.508Z,99.90
2019-05-09T21:59:17.965Z,99.90
2019-05-09T22:01:47.049Z,99.90
2019-05-09T22:04:15.515Z,99.90
2019-05-09T22:06:44.021Z,99.90
2019-05-09T22:09:12.467Z,99.90
2019-05-09T22:11:40.944Z,99.90
2019-05-09T22:14:09.870Z,99.90
2019-05-09T22:16:38.550Z,99.90
2019-05-09T22:19:07.007Z,99.90
2019-05-09T22:21:35.485Z,99.90
2019-05-09T22:24:03.933Z,99.90
2019-05-09T22:26:32.548Z,99.90
2019-05-09T22:29:00.994Z,99.90
2019-05-09T22:31:29.601Z,99.90
2019-05-09T22:33:58.040Z,99.90
2019-05-09T22:36:26.570Z,99.90
2019-05-09T22:38:55.429Z,99.90
2019-05-09T22:41:23.925Z,99.90
2019-05-09T22:43:53.088Z,99.90
2019-05-09T22:46:21.588Z,99.90
2019-05-09T22:48:50.034Z,99.90
2019-05-09T22:51:18.534Z,99.90
2019-05-09T22:53:46.976Z,99.90
2019-05-09T22:56:15.829Z,99.90
2019-05-09T22:58:44.702Z,99.90
2019-05-09T23:01:13.215Z,99.90
2019-05-09T23:03:41.664Z,99.90
2019-05-09T23:06:10.160Z,99.90
2019-05-09T23:08:38.608Z,99.90
2019-05-09T23:11:07.046Z,99.90
2019-05-09T23:13:51.679Z,99.90
2019-05-09T23:16:21.737Z,99.90
2019-05-09T23:18:50.278Z,99.90
2019-05-09T23:21:18.828Z,99.90
2019-05-09T23:23:57.071Z,99.90
2019-05-09T23:26:25.697Z,99.90
2019-05-09T23:28:54.307Z,99.90
2019-05-09T23:31:46.301Z,99.90
2019-05-09T23:34:14.753Z,99.90
2019-05-09T23:36:44.271Z,99.90
2019-05-09T23:39:24.436Z,99.90
2019-05-09T23:41:53.034Z,99.90
2019-05-09T23:44:21.479Z,99.90
2019-05-09T23:46:49.926Z,99.90
2019-05-09T23:49:18.433Z,99.90
2019-05-09T23:51:47.664Z,99.90
2019-05-09T23:54:46.012Z,99.90
2019-05-09T23:57:24.746Z,99.90
